sensor_id;sensor_type;location;lat;lon;timestamp;temperature;humidity
2158;DHT22;41972;48.774;9.282;2024-02-16T00:01:20;8.70;99.90
2158;DHT22;41972;48.774;9.282;2024-02-16T00:03:46;8.90;99.90
2158;DHT22;41972;48.774;9.282;2024-02-16T00:06:12;9.00;99.90
2158;DHT22;41972;48.774;9.282;2024-02-16T00:08:38;9.10;99.90
2158;DHT22;41972;48.774;9.282;2024-02-16T00:11:04;9.20;99.90
2158;DHT22;41972;48.774;9.282;2024-02-16T00:13:30;9.30;99.90
2158;DHT22;41972;48.774;9.282;2024-02-16T00:15:55;9.30;99.90
2158;DHT22;41972;48.774;9.282;2024-02-16T00:18:22;9.40;99.90
2158;DHT22;41972;48.774;9.282;2024-02-16T00:20:49;9.40;99.90
2158;DHT22;41972;48.774;9.282;2024-02-16T00:23:15;9.40;99.90
2158;DHT22;41972;48.774;9.282;2024-02-16T00:25:40;9.60;99.90
2158;DHT22;41972;48.774;9.282;2024-02-16T00:28:07;9.70;99.90
2158;DHT22;41972;48.774;9.282;2024-02-16T00:30:32;9.50;99.90
2158;DHT22;41972;48.774;9.282;2024-02-16T00:32:58;9.50;99.90
2158;DHT22;41972;48.774;9.282;2024-02-16T00:35:23;9.70;99.90
2158;DHT22;41972;48.774;9.282;2024-02-16T00:37:49;9.80;99.90
2158;DHT22;41972;48.774;9.282;2024-02-16T00:40:15;9.80;99.90
2158;DHT22;41972;48.774;9.282;2024-02-16T00:42:40;9.70;99.90
2158;DHT22;41972;48.774;9.282;2024-02-16T00:45:06;9.60;99.90
2158;DHT22;41972;48.774;9.282;2024-02-16T00:47:32;9.50;99.90
2158;DHT22;41972;48.774;9.282;2024-02-16T00:49:58;9.30;99.90
2158;DHT22;41972;48.774;9.282;2024-02-16T00:52:24;9.30;99.90
2158;DHT22;41972;48.774;9.282;2024-02-16T00:54:50;9.40;99.90
2158;DHT22;41972;48.774;9.282;2024-02-16T00:57:15;9.40;99.90
2158;DHT22;41972;48.774;9.282;2024-02-16T00:59:41;9.30;99.90
2158;DHT22;41972;48.774;9.282;2024-02-16T01:02:07;9.40;99.90
2158;DHT22;41972;48.774;9.282;2024-02-16T01:04:33;9.50;99.90
2158;DHT22;41972;48.774;9.282;2024-02-16T01:06:59;9.60;99.90
2158;DHT22;41972;48.774;9.282;2024-02-16T01:09:24;9.50;99.90
2158;DHT22;41972;48.774;9.282;2024-02-16T01:11:50;9.50;99.90
2158;DHT22;41972;48.774;9.282;2024-02-16T01:14:15;9.60;99.90
2158;DHT22;41972;48.774;9.282;2024-02-16T01:16:41;9.70;99.90
2158;DHT22;41972;48.774;9.282;2024-02-16T01:19:06;9.90;99.90
2158;DHT22;41972;48.774;9.282;2024-02-16T01:21:33;9.80;99.90
2158;DHT22;41972;48.774;9.282;2024-02-16T01:23:58;9.90;99.90
2158;DHT22;41972;48.774;9.282;2024-02-16T01:26:26;10.00;99.90
2158;DHT22;41972;48.774;9.282;2024-02-16T01:28:52;9.80;99.90
2158;DHT22;41972;48.774;9.282;2024-02-16T01:31:17;9.90;99.90
2158;DHT22;41972;48.774;9.282;2024-02-16T01:33:43;9.80;99.90
2158;DHT22;41972;48.774;9.282;2024-02-16T01:36:08;9.90;99.90
2158;DHT22;41972;48.774;9.282;2024-02-16T01:38:34;10.00;99.90
2158;DHT22;41972;48.774;9.282;2024-02-16T01:41:00;10.10;99.90
2158;DHT22;41972;48.774;9.282;2024-02-16T01:43:27;10.10;99.90
2158;DHT22;41972;48.774;9.282;2024-02-16T01:45:53;10.20;99.90
2158;DHT22;41972;48.774;9.282;2024-02-16T01:48:18;10.30;99.90
2158;DHT22;41972;48.774;9.282;2024-02-16T01:50:44;10.30;99.90
2158;DHT22;41972;48.774;9.282;2024-02-16T01:53:12;10.20;99.90
2158;DHT22;41972;48.774;9.282;2024-02-16T01:55:38;10.00;99.90
2158;DHT22;41972;48.774;9.282;2024-02-16T01:58:04;10.00;99.90
2158;DHT22;41972;48.774;9.282;2024-02-16T02:00:30;9.90;99.90
2158;DHT22;41972;48.774;9.282;2024-02-16T02:02:56;10.00;99.90
2158;DHT22;41972;48.774;9.282;2024-02-16T02:05:23;10.00;99.90
2158;DHT22;41972;48.774;9.282;2024-02-16T02:07:49;10.20;99.90
2158;DHT22;41972;48.774;9.282;2024-02-16T02:10:14;10.00;99.90
2158;DHT22;41972;48.774;9.282;2024-02-16T02:12:40;10.00;99.90
2158;DHT22;41972;48.774;9.282;2024-02-16T02:15:08;10.00;99.90
2158;DHT22;41972;48.774;9.282;2024-02-16T02:17:34;9.90;99.90
2158;DHT22;41972;48.774;9.282;2024-02-16T02:20:00;10.00;99.90
2158;DHT22;41972;48.774;9.282;2024-02-16T02:22:25;10.30;99.90
2158;DHT22;41972;48.774;9.282;2024-02-16T02:24:52;10.20;99.90
2158;DHT22;41972;48.774;9.282;2024-02-16T02:27:21;10.40;99.90
2158;DHT22;41972;48.774;9.282;2024-02-16T02:29:46;10.50;99.90
2158;DHT22;41972;48.774;9.282;2024-02-16T02:32:12;10.70;99.90
2158;DHT22;41972;48.774;9.282;2024-02-16T02:34:38;10.50;99.90
2158;DHT22;41972;48.774;9.282;2024-02-16T02:37:04;10.50;99.90
2158;DHT22;41972;48.774;9.282;2024-02-16T02:39:30;10.50;99.90
2158;DHT22;41972;48.774;9.282;2024-02-16T02:41:56;10.50;99.90
2158;DHT22;41972;48.774;9.282;2024-02-16T02:44:23;10.10;99.90
2158;DHT22;41972;48.774;9.282;2024-02-16T02:46:49;10.20;99.90
2158;DHT22;41972;48.774;9.282;2024-02-16T02:49:14;10.00;99.90
2158;DHT22;41972;48.774;9.282;2024-02-16T02:51:40;10.00;99.90
2158;DHT22;41972;48.774;9.282;2024-02-16T02:54:07;9.90;99.90
2158;DHT22;41972;48.774;9.282;2024-02-16T02:56:32;9.90;99.90
2158;DHT22;41972;48.774;9.282;2024-02-16T02:58:58;9.90;99.90
2158;DHT22;41972;48.774;9.282;2024-02-16T03:01:23;10.00;99.90
2158;DHT22;41972;48.774;9.282;2024-02-16T03:03:49;10.20;99.90
2158;DHT22;41972;48.774;9.282;2024-02-16T03:06:20;10.10;99.90
2158;DHT22;41972;48.774;9.282;2024-02-16T03:08:46;10.10;99.90
2158;DHT22;41972;48.774;9.282;2024-02-16T03:11:12;10.00;99.90
2158;DHT22;41972;48.774;9.282;2024-02-16T03:13:38;10.00;99.90
2158;DHT22;41972;48.774;9.282;2024-02-16T03:16:04;9.90;99.90
2158;DHT22;41972;48.774;9.282;2024-02-16T03:18:30;9.80;99.90
2158;DHT22;41972;48.774;9.282;2024-02-16T03:20:56;9.90;99.90
2158;DHT22;41972;48.774;9.282;2024-02-16T03:23:22;9.90;99.90
2158;DHT22;41972;48.774;9.282;2024-02-16T03:25:48;10.00;99.90
2158;DHT22;41972;48.774;9.282;2024-02-16T03:28:13;10.10;99.90
2158;DHT22;41972;48.774;9.282;2024-02-16T03:30:40;10.10;99.90
2158;DHT22;41972;48.774;9.282;2024-02-16T03:33:05;10.10;99.90
2158;DHT22;41972;48.774;9.282;2024-02-16T03:35:31;10.10;99.90
2158;DHT22;41972;48.774;9.282;2024-02-16T03:37:56;9.90;99.90
2158;DHT22;41972;48.774;9.282;2024-02-16T03:40:25;10.00;99.90
2158;DHT22;41972;48.774;9.282;2024-02-16T03:42:51;9.90;99.90
2158;DHT22;41972;48.774;9.282;2024-02-16T03:45:17;10.00;99.90
2158;DHT22;41972;48.774;9.282;2024-02-16T03:47:43;10.00;99.90
2158;DHT22;41972;48.774;9.282;2024-02-16T03:50:10;10.10;99.90
2158;DHT22;41972;48.774;9.282;2024-02-16T03:52:36;10.00;99.90
2158;DHT22;41972;48.774;9.282;2024-02-16T03:55:02;10.10;99.90
2158;DHT22;41972;48.774;9.282;2024-02-16T03:57:27;10.00;99.90
2158;DHT22;41972;48.774;9.282;2024-02-16T03:59:53;9.90;99.90
2158;DHT22;41972;48.774;9.282;2024-02-16T04:02:19;9.70;99.90
2158;DHT22;41972;48.774;9.282;2024-02-16T04:04:45;9.80;99.90
2158;DHT22;41972;48.774;9.282;2024-02-16T04:07:10;9.80;99.90
2158;DHT22;41972;48.774;9.282;2024-02-16T04:09:36;9.80;99.90
2158;DHT22;41972;48.774;9.282;2024-02-16T04:12:02;9.80;99.90
2158;DHT22;41972;48.774;9.282;2024-02-16T04:14:31;9.60;99.90
2158;DHT22;41972;48.774;9.282;2024-02-16T04:16:59;9.50;99.90
2158;DHT22;41972;48.774;9.282;2024-02-16T04:19:25;9.40;99.90
2158;DHT22;41972;48.774;9.282;2024-02-16T04:21:51;9.40;99.90
2158;DHT22;41972;48.774;9.282;2024-02-16T04:24:17;9.50;99.90
2158;DHT22;41972;48.774;9.282;2024-02-16T04:26:43;9.60;99.90
2158;DHT22;41972;48.774;9.282;2024-02-16T04:29:09;9.70;99.90
2158;DHT22;41972;48.774;9.282;2024-02-16T04:31:35;9.70;99.90
2158;DHT22;41972;48.774;9.282;2024-02-16T04:34:00;9.70;99.90
2158;DHT22;41972;48.774;9.282;2024-02-16T04:36:27;9.80;99.90
2158;DHT22;41972;48.774;9.282;2024-02-16T04:38:52;9.80;99.90
2158;DHT22;41972;48.774;9.282;2024-02-16T04:41:20;9.80;99.90
2158;DHT22;41972;48.774;9.282;2024-02-16T04:43:45;9.90;99.90
2158;DHT22;41972;48.774;9.282;2024-02-16T04:46:15;9.80;99.90
2158;DHT22;41972;48.774;9.282;2024-02-16T04:48:41;9.80;99.90
2158;DHT22;41972;48.774;9.282;2024-02-16T04:51:06;9.70;99.90
2158;DHT22;41972;48.774;9.282;2024-02-16T04:53:32;9.70;99.90
2158;DHT22;41972;48.774;9.282;2024-02-16T04:55:57;9.70;99.90
2158;DHT22;41972;48.774;9.282;2024-02-16T04:58:23;9.90;99.90
2158;DHT22;41972;48.774;9.282;2024-02-16T05:00:49;9.90;99.90
2158;DHT22;41972;48.774;9.282;2024-02-16T05:03:15;9.90;99.90
2158;DHT22;41972;48.774;9.282;2024-02-16T05:05:40;9.90;99.90
2158;DHT22;41972;48.774;9.282;2024-02-16T05:08:06;9.80;99.90
2158;DHT22;41972;48.774;9.282;2024-02-16T05:10:32;9.90;99.90
2158;DHT22;41972;48.774;9.282;2024-02-16T05:12:57;9.90;99.90
2158;DHT22;41972;48.774;9.282;2024-02-16T05:15:23;10.10;99.90
2158;DHT22;41972;48.774;9.282;2024-02-16T05:17:49;10.30;99.90
2158;DHT22;41972;48.774;9.282;2024-02-16T05:20:15;10.30;99.90
2158;DHT22;41972;48.774;9.282;2024-02-16T05:22:44;10.30;99.90
2158;DHT22;41972;48.774;9.282;2024-02-16T05:25:12;10.20;99.90
2158;DHT22;41972;48.774;9.282;2024-02-16T05:27:37;10.10;99.90
2158;DHT22;41972;48.774;9.282;2024-02-16T05:30:04;10.20;99.90
2158;DHT22;41972;48.774;9.282;2024-02-16T05:32:36;10.20;99.90
2158;DHT22;41972;48.774;9.282;2024-02-16T05:35:06;10.20;99.90
2158;DHT22;41972;48.774;9.282;2024-02-16T05:37:48;10.30;99.90
2158;DHT22;41972;48.774;9.282;2024-02-16T05:40:20;10.30;99.90
2158;DHT22;41972;48.774;9.282;2024-02-16T05:42:52;10.20;99.90
2158;DHT22;41972;48.774;9.282;2024-02-16T05:45:18;10.20;99.90
2158;DHT22;41972;48.774;9.282;2024-02-16T05:47:45;10.20;99.90
2158;DHT22;41972;48.774;9.282;2024-02-16T05:50:14;10.20;99.90
2158;DHT22;41972;48.774;9.282;2024-02-16T05:52:41;10.20;99.90
2158;DHT22;41972;48.774;9.282;2024-02-16T05:55:11;10.30;99.90
2158;DHT22;41972;48.774;9.282;2024-02-16T05:57:37;10.40;99.90
2158;DHT22;41972;48.774;9.282;2024-02-16T06:00:04;10.30;99.90
2158;DHT22;41972;48.774;9.282;2024-02-16T06:02:31;10.30;99.90
2158;DHT22;41972;48.774;9.282;2024-02-16T06:04:57;10.30;99.90
2158;DHT22;41972;48.774;9.282;2024-02-16T06:07:22;10.20;99.90
2158;DHT22;41972;48.774;9.282;2024-02-16T06:09:48;10.20;99.90
2158;DHT22;41972;48.774;9.282;2024-02-16T06:12:14;10.10;99.90
2158;DHT22;41972;48.774;9.282;2024-02-16T06:14:41;10.10;99.90
2158;DHT22;41972;48.774;9.282;2024-02-16T06:17:07;10.10;99.90
2158;DHT22;41972;48.774;9.282;2024-02-16T06:19:33;10.10;99.90
2158;DHT22;41972;48.774;9.282;2024-02-16T06:21:59;10.10;99.90
2158;DHT22;41972;48.774;9.282;2024-02-16T06:24:24;10.10;99.90
2158;DHT22;41972;48.774;9.282;2024-02-16T06:26:50;10.10;99.90
2158;DHT22;41972;48.774;9.282;2024-02-16T06:29:17;10.00;99.90
2158;DHT22;41972;48.774;9.282;2024-02-16T06:31:45;9.80;99.90
2158;DHT22;41972;48.774;9.282;2024-02-16T06:34:10;9.80;99.90
2158;DHT22;41972;48.774;9.282;2024-02-16T06:36:36;9.80;99.90
2158;DHT22;41972;48.774;9.282;2024-02-16T06:39:01;9.80;99.90
2158;DHT22;41972;48.774;9.282;2024-02-16T06:41:27;9.80;99.90
2158;DHT22;41972;48.774;9.282;2024-02-16T06:43:52;9.90;99.90
2158;DHT22;41972;48.774;9.282;2024-02-16T06:46:18;9.90;99.90
2158;DHT22;41972;48.774;9.282;2024-02-16T06:48:43;9.90;99.90
2158;DHT22;41972;48.774;9.282;2024-02-16T06:51:09;10.00;99.90
2158;DHT22;41972;48.774;9.282;2024-02-16T06:53:34;10.00;99.90
2158;DHT22;41972;48.774;9.282;2024-02-16T06:56:00;10.20;99.90
2158;DHT22;41972;48.774;9.282;2024-02-16T06:58:25;10.10;99.90
2158;DHT22;41972;48.774;9.282;2024-02-16T07:00:51;10.00;99.90
2158;DHT22;41972;48.774;9.282;2024-02-16T07:03:17;10.00;99.90
2158;DHT22;41972;48.774;9.282;2024-02-16T07:05:43;10.10;99.90
2158;DHT22;41972;48.774;9.282;2024-02-16T07:08:09;10.10;99.90
2158;DHT22;41972;48.774;9.282;2024-02-16T07:10:35;10.20;99.90
2158;DHT22;41972;48.774;9.282;2024-02-16T07:13:00;10.20;99.90
2158;DHT22;41972;48.774;9.282;2024-02-16T07:15:26;10.30;99.90
2158;DHT22;41972;48.774;9.282;2024-02-16T07:17:52;10.20;99.90
2158;DHT22;41972;48.774;9.282;2024-02-16T07:20:18;10.30;99.90
2158;DHT22;41972;48.774;9.282;2024-02-16T07:22:44;10.40;99.90
2158;DHT22;41972;48.774;9.282;2024-02-16T07:25:11;10.40;99.90
2158;DHT22;41972;48.774;9.282;2024-02-16T07:27:38;10.40;99.90
2158;DHT22;41972;48.774;9.282;2024-02-16T07:30:03;10.40;99.90
2158;DHT22;41972;48.774;9.282;2024-02-16T07:32:29;10.40;99.90
2158;DHT22;41972;48.774;9.282;2024-02-16T07:34:55;10.60;99.90
2158;DHT22;41972;48.774;9.282;2024-02-16T07:37:20;10.70;99.90
2158;DHT22;41972;48.774;9.282;2024-02-16T07:39:46;10.90;99.90
2158;DHT22;41972;48.774;9.282;2024-02-16T07:42:11;11.00;99.90
2158;DHT22;41972;48.774;9.282;2024-02-16T07:44:38;11.00;99.90
2158;DHT22;41972;48.774;9.282;2024-02-16T07:47:04;11.00;99.90
2158;DHT22;41972;48.774;9.282;2024-02-16T07:49:30;11.00;99.90
2158;DHT22;41972;48.774;9.282;2024-02-16T07:51:56;10.90;99.90
2158;DHT22;41972;48.774;9.282;2024-02-16T07:54:23;11.00;99.90
2158;DHT22;41972;48.774;9.282;2024-02-16T07:56:48;11.10;99.90
2158;DHT22;41972;48.774;9.282;2024-02-16T07:59:14;11.10;99.90
2158;DHT22;41972;48.774;9.282;2024-02-16T08:01:39;11.00;99.90
2158;DHT22;41972;48.774;9.282;2024-02-16T08:04:06;11.10;99.90
2158;DHT22;41972;48.774;9.282;2024-02-16T08:06:31;11.20;99.90
2158;DHT22;41972;48.774;9.282;2024-02-16T08:08:57;11.30;99.90
2158;DHT22;41972;48.774;9.282;2024-02-16T08:11:22;11.40;99.90
2158;DHT22;41972;48.774;9.282;2024-02-16T08:13:48;11.50;99.90
2158;DHT22;41972;48.774;9.282;2024-02-16T08:16:14;11.70;99.90
2158;DHT22;41972;48.774;9.282;2024-02-16T08:18:39;11.90;99.90
2158;DHT22;41972;48.774;9.282;2024-02-16T08:21:05;12.10;99.90
2158;DHT22;41972;48.774;9.282;2024-02-16T08:23:30;12.60;99.90
2158;DHT22;41972;48.774;9.282;2024-02-16T08:25:56;13.80;99.90
2158;DHT22;41972;48.774;9.282;2024-02-16T08:28:23;14.90;99.90
2158;DHT22;41972;48.774;9.282;2024-02-16T08:30:49;14.80;99.90
2158;DHT22;41972;48.774;9.282;2024-02-16T08:33:15;14.90;99.90
2158;DHT22;41972;48.774;9.282;2024-02-16T08:35:41;15.80;99.90
2158;DHT22;41972;48.774;9.282;2024-02-16T08:38:06;15.10;99.90
2158;DHT22;41972;48.774;9.282;2024-02-16T08:40:36;15.70;99.90
2158;DHT22;41972;48.774;9.282;2024-02-16T08:43:02;15.90;99.90
2158;DHT22;41972;48.774;9.282;2024-02-16T08:45:28;16.70;99.90
2158;DHT22;41972;48.774;9.282;2024-02-16T08:47:54;17.80;99.90
2158;DHT22;41972;48.774;9.282;2024-02-16T08:50:22;19.70;99.90
2158;DHT22;41972;48.774;9.282;2024-02-16T08:52:47;20.50;99.90
2158;DHT22;41972;48.774;9.282;2024-02-16T08:55:13;20.10;99.90
2158;DHT22;41972;48.774;9.282;2024-02-16T08:57:38;20.20;99.90
2158;DHT22;41972;48.774;9.282;2024-02-16T09:00:06;21.20;99.90
2158;DHT22;41972;48.774;9.282;2024-02-16T09:02:32;19.60;99.90
2158;DHT22;41972;48.774;9.282;2024-02-16T09:04:58;20.10;99.90
2158;DHT22;41972;48.774;9.282;2024-02-16T09:07:23;18.90;99.90
2158;DHT22;41972;48.774;9.282;2024-02-16T09:09:51;17.60;99.90
2158;DHT22;41972;48.774;9.282;2024-02-16T09:12:16;17.60;99.90
2158;DHT22;41972;48.774;9.282;2024-02-16T09:14:42;17.50;99.90
2158;DHT22;41972;48.774;9.282;2024-02-16T09:17:07;17.70;99.90
2158;DHT22;41972;48.774;9.282;2024-02-16T09:19:33;18.10;99.90
2158;DHT22;41972;48.774;9.282;2024-02-16T09:21:59;20.20;99.90
2158;DHT22;41972;48.774;9.282;2024-02-16T09:24:27;19.90;99.90
2158;DHT22;41972;48.774;9.282;2024-02-16T09:26:55;21.40;99.90
2158;DHT22;41972;48.774;9.282;2024-02-16T09:29:20;20.90;99.90
2158;DHT22;41972;48.774;9.282;2024-02-16T09:31:49;21.40;99.90
2158;DHT22;41972;48.774;9.282;2024-02-16T09:34:16;21.80;99.90
2158;DHT22;41972;48.774;9.282;2024-02-16T09:36:42;20.80;99.90
2158;DHT22;41972;48.774;9.282;2024-02-16T09:39:08;17.40;99.90
2158;DHT22;41972;48.774;9.282;2024-02-16T09:41:35;17.00;99.90
2158;DHT22;41972;48.774;9.282;2024-02-16T09:44:03;16.90;99.90
2158;DHT22;41972;48.774;9.282;2024-02-16T09:46:30;16.80;99.90
2158;DHT22;41972;48.774;9.282;2024-02-16T09:49:01;17.90;99.90
2158;DHT22;41972;48.774;9.282;2024-02-16T09:51:29;19.60;99.90
2158;DHT22;41972;48.774;9.282;2024-02-16T09:53:54;20.70;99.90
2158;DHT22;41972;48.774;9.282;2024-02-16T09:56:23;19.20;99.90
2158;DHT22;41972;48.774;9.282;2024-02-16T09:58:50;20.00;99.90
2158;DHT22;41972;48.774;9.282;2024-02-16T10:01:21;21.00;99.90
2158;DHT22;41972;48.774;9.282;2024-02-16T10:03:47;20.60;99.90
2158;DHT22;41972;48.774;9.282;2024-02-16T10:06:13;22.40;99.90
2158;DHT22;41972;48.774;9.282;2024-02-16T10:08:54;22.50;99.90
2158;DHT22;41972;48.774;9.282;2024-02-16T10:11:21;21.70;99.90
2158;DHT22;41972;48.774;9.282;2024-02-16T10:14:00;21.70;99.90
2158;DHT22;41972;48.774;9.282;2024-02-16T10:16:26;21.20;99.90
2158;DHT22;41972;48.774;9.282;2024-02-16T10:19:05;19.70;99.90
2158;DHT22;41972;48.774;9.282;2024-02-16T10:21:31;19.60;99.90
2158;DHT22;41972;48.774;9.282;2024-02-16T10:24:00;20.90;99.90
2158;DHT22;41972;48.774;9.282;2024-02-16T10:26:29;21.10;99.90
2158;DHT22;41972;48.774;9.282;2024-02-16T10:28:56;20.60;99.90
2158;DHT22;41972;48.774;9.282;2024-02-16T10:31:24;20.90;99.90
2158;DHT22;41972;48.774;9.282;2024-02-16T10:34:03;22.50;99.90
2158;DHT22;41972;48.774;9.282;2024-02-16T10:36:32;23.10;99.90
2158;DHT22;41972;48.774;9.282;2024-02-16T10:38:58;25.00;99.90
2158;DHT22;41972;48.774;9.282;2024-02-16T10:41:28;27.30;99.90
2158;DHT22;41972;48.774;9.282;2024-02-16T10:43:56;23.30;99.90
2158;DHT22;41972;48.774;9.282;2024-02-16T10:46:23;24.30;99.90
2158;DHT22;41972;48.774;9.282;2024-02-16T10:48:50;21.30;99.90
2158;DHT22;41972;48.774;9.282;2024-02-16T10:51:17;20.80;99.90
2158;DHT22;41972;48.774;9.282;2024-02-16T10:53:46;20.90;99.90
2158;DHT22;41972;48.774;9.282;2024-02-16T10:56:13;21.10;99.90
2158;DHT22;41972;48.774;9.282;2024-02-16T10:58:39;21.60;99.90
2158;DHT22;41972;48.774;9.282;2024-02-16T11:01:09;20.70;99.90
2158;DHT22;41972;48.774;9.282;2024-02-16T11:03:38;20.20;99.90
2158;DHT22;41972;48.774;9.282;2024-02-16T11:06:16;18.60;99.90
2158;DHT22;41972;48.774;9.282;2024-02-16T11:08:42;18.90;99.90
2158;DHT22;41972;48.774;9.282;2024-02-16T11:11:08;18.70;99.90
2158;DHT22;41972;48.774;9.282;2024-02-16T11:13:37;19.90;99.90
2158;DHT22;41972;48.774;9.282;2024-02-16T11:16:06;20.50;99.90
2158;DHT22;41972;48.774;9.282;2024-02-16T11:18:37;20.80;99.90
2158;DHT22;41972;48.774;9.282;2024-02-16T11:21:05;20.40;99.90
2158;DHT22;41972;48.774;9.282;2024-02-16T11:23:34;21.00;99.90
2158;DHT22;41972;48.774;9.282;2024-02-16T11:26:04;19.90;99.90
2158;DHT22;41972;48.774;9.282;2024-02-16T11:28:34;18.60;99.90
2158;DHT22;41972;48.774;9.282;2024-02-16T11:31:01;18.70;99.90
2158;DHT22;41972;48.774;9.282;2024-02-16T11:33:28;18.70;99.90
2158;DHT22;41972;48.774;9.282;2024-02-16T11:35:58;19.30;99.90
2158;DHT22;41972;48.774;9.282;2024-02-16T11:38:24;19.50;99.90
2158;DHT22;41972;48.774;9.282;2024-02-16T11:40:58;19.70;99.90
2158;DHT22;41972;48.774;9.282;2024-02-16T11:43:25;19.70;99.90
2158;DHT22;41972;48.774;9.282;2024-02-16T11:45:50;19.50;99.90
2158;DHT22;41972;48.774;9.282;2024-02-16T11:48:20;18.70;99.90
2158;DHT22;41972;48.774;9.282;2024-02-16T11:50:57;19.00;99.90
2158;DHT22;41972;48.774;9.282;2024-02-16T11:53:23;19.20;99.90
2158;DHT22;41972;48.774;9.282;2024-02-16T11:55:49;19.80;99.90
2158;DHT22;41972;48.774;9.282;2024-02-16T11:58:19;19.10;99.90
2158;DHT22;41972;48.774;9.282;2024-02-16T12:00:48;19.70;99.90
2158;DHT22;41972;48.774;9.282;2024-02-16T12:03:24;19.80;99.90
2158;DHT22;41972;48.774;9.282;2024-02-16T12:08:20;18.90;99.90
2158;DHT22;41972;48.774;9.282;2024-02-16T12:10:48;18.30;99.90
2158;DHT22;41972;48.774;9.282;2024-02-16T12:13:17;19.00;99.90
2158;DHT22;41972;48.774;9.282;2024-02-16T12:15:44;18.90;99.90
2158;DHT22;41972;48.774;9.282;2024-02-16T12:18:13;18.80;99.90
2158;DHT22;41972;48.774;9.282;2024-02-16T12:20:44;19.70;99.90
2158;DHT22;41972;48.774;9.282;2024-02-16T12:23:12;19.80;99.90
2158;DHT22;41972;48.774;9.282;2024-02-16T12:25:39;20.20;99.90
2158;DHT22;41972;48.774;9.282;2024-02-16T12:28:05;20.30;99.90
2158;DHT22;41972;48.774;9.282;2024-02-16T12:30:31;20.50;99.90
2158;DHT22;41972;48.774;9.282;2024-02-16T12:32:56;19.40;99.90
2158;DHT22;41972;48.774;9.282;2024-02-16T12:35:22;19.00;99.90
2158;DHT22;41972;48.774;9.282;2024-02-16T12:37:47;19.20;99.90
2158;DHT22;41972;48.774;9.282;2024-02-16T12:40:13;19.10;99.90
2158;DHT22;41972;48.774;9.282;2024-02-16T12:42:38;19.00;99.90
2158;DHT22;41972;48.774;9.282;2024-02-16T12:45:04;18.90;99.90
2158;DHT22;41972;48.774;9.282;2024-02-16T12:47:30;19.70;99.90
2158;DHT22;41972;48.774;9.282;2024-02-16T12:49:56;20.00;99.90
2158;DHT22;41972;48.774;9.282;2024-02-16T12:52:22;20.40;99.90
2158;DHT22;41972;48.774;9.282;2024-02-16T12:54:48;20.10;99.90
2158;DHT22;41972;48.774;9.282;2024-02-16T12:57:14;20.10;99.90
2158;DHT22;41972;48.774;9.282;2024-02-16T12:59:39;20.10;99.90
2158;DHT22;41972;48.774;9.282;2024-02-16T13:02:05;19.90;99.90
2158;DHT22;41972;48.774;9.282;2024-02-16T13:04:30;20.00;99.90
2158;DHT22;41972;48.774;9.282;2024-02-16T13:06:57;20.40;99.90
2158;DHT22;41972;48.774;9.282;2024-02-16T13:09:23;20.50;99.90
2158;DHT22;41972;48.774;9.282;2024-02-16T13:11:49;19.40;99.90
2158;DHT22;41972;48.774;9.282;2024-02-16T13:14:21;18.60;99.90
2158;DHT22;41972;48.774;9.282;2024-02-16T13:16:46;18.40;99.90
2158;DHT22;41972;48.774;9.282;2024-02-16T13:19:12;17.60;99.90
2158;DHT22;41972;48.774;9.282;2024-02-16T13:21:38;17.30;99.90
2158;DHT22;41972;48.774;9.282;2024-02-16T13:24:04;17.60;99.90
2158;DHT22;41972;48.774;9.282;2024-02-16T13:26:30;17.40;99.90
2158;DHT22;41972;48.774;9.282;2024-02-16T13:28:57;17.30;99.90
2158;DHT22;41972;48.774;9.282;2024-02-16T13:31:23;17.10;99.90
2158;DHT22;41972;48.774;9.282;2024-02-16T13:33:50;17.20;99.90
2158;DHT22;41972;48.774;9.282;2024-02-16T13:36:16;17.00;99.90
2158;DHT22;41972;48.774;9.282;2024-02-16T13:38:41;16.90;99.90
2158;DHT22;41972;48.774;9.282;2024-02-16T13:41:07;17.00;99.90
2158;DHT22;41972;48.774;9.282;2024-02-16T13:43:32;17.10;99.90
2158;DHT22;41972;48.774;9.282;2024-02-16T13:45:58;17.00;99.90
2158;DHT22;41972;48.774;9.282;2024-02-16T13:48:24;17.10;99.90
2158;DHT22;41972;48.774;9.282;2024-02-16T13:50:50;16.90;99.90
2158;DHT22;41972;48.774;9.282;2024-02-16T13:53:16;17.10;99.90
2158;DHT22;41972;48.774;9.282;2024-02-16T13:55:42;16.90;99.90
2158;DHT22;41972;48.774;9.282;2024-02-16T13:58:12;17.10;99.90
2158;DHT22;41972;48.774;9.282;2024-02-16T14:00:38;17.30;99.90
2158;DHT22;41972;48.774;9.282;2024-02-16T14:03:05;17.40;99.90
2158;DHT22;41972;48.774;9.282;2024-02-16T14:05:37;17.30;99.90
2158;DHT22;41972;48.774;9.282;2024-02-16T14:08:03;17.30;99.90
2158;DHT22;41972;48.774;9.282;2024-02-16T14:10:30;17.50;99.90
2158;DHT22;41972;48.774;9.282;2024-02-16T14:12:57;17.60;99.90
2158;DHT22;41972;48.774;9.282;2024-02-16T14:15:23;17.50;99.90
2158;DHT22;41972;48.774;9.282;2024-02-16T14:17:48;17.50;99.90
2158;DHT22;41972;48.774;9.282;2024-02-16T14:20:14;17.60;99.90
2158;DHT22;41972;48.774;9.282;2024-02-16T14:22:39;17.60;99.90
2158;DHT22;41972;48.774;9.282;2024-02-16T14:25:05;17.50;99.90
2158;DHT22;41972;48.774;9.282;2024-02-16T14:27:31;17.20;99.90
2158;DHT22;41972;48.774;9.282;2024-02-16T14:29:57;17.10;99.90
2158;DHT22;41972;48.774;9.282;2024-02-16T14:32:23;17.20;99.90
2158;DHT22;41972;48.774;9.282;2024-02-16T14:34:49;17.00;99.90
2158;DHT22;41972;48.774;9.282;2024-02-16T14:37:14;16.90;99.90
2158;DHT22;41972;48.774;9.282;2024-02-16T14:39:40;16.90;99.90
2158;DHT22;41972;48.774;9.282;2024-02-16T14:42:05;16.70;99.90
2158;DHT22;41972;48.774;9.282;2024-02-16T14:44:31;16.70;99.90
2158;DHT22;41972;48.774;9.282;2024-02-16T14:46:56;16.90;99.90
2158;DHT22;41972;48.774;9.282;2024-02-16T14:49:22;16.90;99.90
2158;DHT22;41972;48.774;9.282;2024-02-16T14:51:50;17.00;99.90
2158;DHT22;41972;48.774;9.282;2024-02-16T14:54:16;16.90;99.90
2158;DHT22;41972;48.774;9.282;2024-02-16T14:56:41;17.00;99.90
2158;DHT22;41972;48.774;9.282;2024-02-16T14:59:07;17.10;99.90
2158;DHT22;41972;48.774;9.282;2024-02-16T15:01:36;17.20;99.90
2158;DHT22;41972;48.774;9.282;2024-02-16T15:04:02;17.10;99.90
2158;DHT22;41972;48.774;9.282;2024-02-16T15:06:28;17.10;99.90
2158;DHT22;41972;48.774;9.282;2024-02-16T15:08:54;17.00;99.90
2158;DHT22;41972;48.774;9.282;2024-02-16T15:11:20;17.00;99.90
2158;DHT22;41972;48.774;9.282;2024-02-16T15:13:45;16.90;99.90
2158;DHT22;41972;48.774;9.282;2024-02-16T15:16:11;16.80;99.90
2158;DHT22;41972;48.774;9.282;2024-02-16T15:18:36;16.80;99.90
2158;DHT22;41972;48.774;9.282;2024-02-16T15:21:02;16.90;99.90
2158;DHT22;41972;48.774;9.282;2024-02-16T15:23:27;17.00;99.90
2158;DHT22;41972;48.774;9.282;2024-02-16T15:25:53;16.70;99.90
2158;DHT22;41972;48.774;9.282;2024-02-16T15:28:18;16.50;99.90
2158;DHT22;41972;48.774;9.282;2024-02-16T15:30:44;16.30;99.90
2158;DHT22;41972;48.774;9.282;2024-02-16T15:33:10;16.20;99.90
2158;DHT22;41972;48.774;9.282;2024-02-16T15:35:36;16.20;99.90
2158;DHT22;41972;48.774;9.282;2024-02-16T15:38:01;16.20;99.90
2158;DHT22;41972;48.774;9.282;2024-02-16T15:40:27;16.20;99.90
2158;DHT22;41972;48.774;9.282;2024-02-16T15:43:03;16.10;99.90
2158;DHT22;41972;48.774;9.282;2024-02-16T15:45:29;16.00;99.90
2158;DHT22;41972;48.774;9.282;2024-02-16T15:47:55;15.90;99.90